Time;durP1;ratioP1;P1;durP2;ratioP2;P2;SDS_P1;SDS_P2;PMS_P1;PMS_P2;Temp;Humidity;BMP_temperature;BMP_pressure;BME280_temperature;BME280_humidity;BME280_pressure;Samples;Min_cycle;Max_cycle;Signal;HPM_P1;HPM_P2
2022/01/31 00:02:13;;;;;;;26.17;4.97;;;;;;;2.71;60.86;100043.63;2171161;82;30253;-60
2022/01/31 00:05:15;;;;;;;20.55;5.12;;;;;;;2.63;61.00;100040.28;2151483;82;28607;-61
2022/01/31 00:08:23;;;;;;;28.70;5.70;;;;;;;2.56;61.19;100043.52;2158596;81;28868;-61
2022/01/31 00:11:22;;;;;;;24.45;4.60;;;;;;;2.55;61.30;100037.80;2172913;80;31916;-61
2022/01/31 00:14:35;;;;;;;21.23;4.22;;;;;;;2.51;61.37;100033.01;2170806;81;33763;-62
2022/01/31 00:17:33;;;;;;;26.10;4.17;;;;;;;2.48;61.39;100023.84;2171110;81;30540;-61
2022/01/31 00:20:37;;;;;;;30.40;5.12;;;;;;;2.42;61.37;100034.53;2173415;81;27655;-61
2022/01/31 00:23:39;;;;;;;22.48;5.40;;;;;;;2.33;61.35;100027.66;2169925;81;29996;-61
2022/01/31 00:26:41;;;;;;;33.00;5.30;;;;;;;2.25;61.46;100026.92;2085727;85;32268;-61
2022/01/31 00:29:43;;;;;;;28.57;6.00;;;;;;;2.16;61.56;100027.97;2153784;81;34148;-61
2022/01/31 00:32:44;;;;;;;31.40;4.90;;;;;;;2.09;61.63;100029.02;2167992;81;29906;-62
2022/01/31 00:35:47;;;;;;;24.07;5.50;;;;;;;2.00;61.67;100029.17;2169058;81;27715;-61
2022/01/31 00:38:48;;;;;;;25.80;4.78;;;;;;;1.91;61.75;100026.25;2171693;82;29028;-61
2022/01/31 00:41:50;;;;;;;32.35;5.55;;;;;;;1.82;61.87;100026.85;2171431;82;31684;-61
2022/01/31 00:44:58;;;;;;;19.25;4.62;;;;;;;1.75;61.94;100019.07;2164996;82;34105;-61
2022/01/31 00:48:14;;;;;;;25.20;4.83;;;;;;;1.67;62.04;100004.22;2154747;81;29769;-60
2022/01/31 00:51:03;;;;;;;30.45;5.03;;;;;;;1.60;62.12;99999.97;2154790;81;27677;-60
2022/01/31 00:54:04;;;;;;;22.22;4.62;;;;;;;1.55;62.21;99989.07;2085855;85;29991;-61
2022/01/31 00:57:06;;;;;;;22.50;5.20;;;;;;;1.48;62.26;99998.41;2154287;82;32344;-60
2022/01/31 01:00:11;;;;;;;24.90;4.40;;;;;;;1.45;62.34;99997.59;2152759;82;34204;-60
2022/01/31 01:03:13;;;;;;;25.52;4.40;;;;;;;1.38;62.46;99982.74;2154541;82;29374;-59
2022/01/31 01:06:14;;;;;;;29.23;4.83;;;;;;;1.30;62.54;99979.80;2152068;82;27729;-59
2022/01/31 01:09:16;;;;;;;22.62;4.70;;;;;;;1.27;62.62;99981.59;2145373;81;29943;-59
2022/01/31 01:12:19;;;;;;;28.60;5.62;;;;;;;1.22;62.66;99979.05;2104328;84;32232;-59
2022/01/31 01:15:21;;;;;;;20.52;4.20;;;;;;;1.19;62.71;99970.74;2114935;83;33170;-59
2022/01/31 01:18:24;;;;;;;26.12;4.47;;;;;;;1.19;62.79;99961.94;2178222;81;30540;-60
2022/01/31 01:21:26;;;;;;;22.98;4.00;;;;;;;1.16;62.82;99958.91;2178509;81;27598;-59
2022/01/31 01:24:28;;;;;;;25.48;4.70;;;;;;;1.14;62.82;99955.42;2086063;84;29884;-59
2022/01/31 01:27:30;;;;;;;25.82;4.42;;;;;;;1.13;62.86;99951.51;2091190;84;32349;-60
2022/01/31 01:30:32;;;;;;;25.10;4.40;;;;;;;1.12;62.88;99947.98;2133015;83;33513;-59
2022/01/31 01:33:38;;;;;;;23.70;4.53;;;;;;;1.11;62.85;99937.47;2150099;81;29380;-60
2022/01/31 01:36:38;;;;;;;29.25;4.55;;;;;;;1.09;62.90;99940.11;2162549;81;27779;-59
2022/01/31 01:39:41;;;;;;;23.45;6.03;;;;;;;1.09;62.94;99944.07;2171714;81;28675;-59
2022/01/31 01:42:43;;;;;;;20.80;4.28;;;;;;;1.11;62.94;99937.47;2164896;81;31036;-59
2022/01/31 01:45:45;;;;;;;25.45;4.12;;;;;;;1.14;62.99;99934.78;2172164;82;34178;-59
2022/01/31 01:48:47;;;;;;;29.70;4.95;;;;;;;1.19;63.07;99937.77;2172966;81;29906;-59
2022/01/31 01:51:49;;;;;;;18.80;4.08;;;;;;;1.25;63.06;99929.30;2172688;81;27612;-60
2022/01/31 01:54:51;;;;;;;22.50;4.17;;;;;;;1.33;63.04;99926.95;2168917;81;29108;-59
2022/01/31 01:57:52;;;;;;;40.10;4.80;;;;;;;1.40;63.06;99922.89;2168663;82;32380;-59
2022/01/31 02:01:02;;;;;;;30.92;5.37;;;;;;;1.46;62.97;99916.19;2170594;82;33330;-60
2022/01/31 02:04:04;;;;;;;26.35;4.08;;;;;;;1.52;62.87;99912.09;2168466;82;30671;-60
2022/01/31 02:07:06;;;;;;;28.42;4.47;;;;;;;1.56;62.76;99916.43;2170227;82;27790;-60
2022/01/31 02:10:09;;;;;;;24.27;4.28;;;;;;;1.59;62.78;99919.02;2170474;82;29139;-60
2022/01/31 02:13:12;;;;;;;21.50;4.10;;;;;;;1.61;62.69;99905.34;2156954;81;31925;-59
2022/01/31 02:16:14;;;;;;;23.00;4.83;;;;;;;1.64;62.69;99905.28;2157816;81;33023;-59
2022/01/31 02:19:19;;;;;;;18.52;3.40;;;;;;;1.64;62.68;99901.76;2172032;81;30537;-60
2022/01/31 02:22:20;;;;;;;21.00;3.30;;;;;;;1.64;62.66;99896.05;2171159;80;33460;-59
2022/01/31 02:25:22;;;;;;;35.80;5.78;;;;;;;1.67;62.80;99888.50;2134245;83;29792;-59
2022/01/31 02:28:27;;;;;;;24.05;3.72;;;;;;;1.70;62.89;99879.64;2135039;83;32350;-60
2022/01/31 02:31:29;;;;;;;28.33;4.10;;;;;;;1.76;62.95;99878.21;2135589;83;32976;-60
2022/01/31 02:34:31;;;;;;;23.05;4.20;;;;;;;1.83;63.08;99878.48;2156237;82;30478;-60
2022/01/31 02:37:32;;;;;;;20.92;3.70;;;;;;;1.89;63.03;99878.84;2169270;82;27792;-60
2022/01/31 02:40:35;;;;;;;29.95;4.67;;;;;;;1.95;63.08;99876.05;2170046;82;29840;-60
2022/01/31 02:43:37;;;;;;;34.73;6.22;;;;;;;2.02;63.08;99860.93;2154460;82;31845;-60
2022/01/31 02:46:38;;;;;;;34.98;5.33;;;;;;;2.07;63.16;99856.42;2141027;81;32986;-61
2022/01/31 02:49:52;;;;;;;36.95;5.05;;;;;;;2.15;63.18;99856.26;2172677;81;29716;-63
2022/01/31 02:53:00;;;;;;;29.20;4.45;;;;;;;2.22;63.28;99849.48;2170373;80;27646;-62
2022/01/31 02:55:57;;;;;;;26.20;4.78;;;;;;;2.28;63.20;99835.25;2171209;81;28677;-63
2022/01/31 02:58:59;;;;;;;20.52;4.87;;;;;;;2.35;63.16;99829.36;2171224;81;31703;-61
2022/01/31 03:02:01;;;;;;;31.37;5.25;;;;;;;2.41;63.26;99820.83;2171532;81;34354;-61
2022/01/31 03:05:04;;;;;;;20.60;4.20;;;;;;;2.47;63.13;99823.81;2149319;81;30535;-62
2022/01/31 03:08:08;;;;;;;22.00;4.75;;;;;;;2.50;63.18;99821.53;2151091;82;28284;-61
2022/01/31 03:11:10;;;;;;;25.00;5.08;;;;;;;2.51;63.06;99809.59;2154198;82;29603;-62
2022/01/31 03:14:15;;;;;;;28.07;4.75;;;;;;;2.54;63.11;99813.48;2153834;82;31485;-62
2022/01/31 03:17:15;;;;;;;24.72;4.40;;;;;;;2.57;63.09;99803.27;2171749;81;34210;-62
2022/01/31 03:20:20;;;;;;;26.57;4.37;;;;;;;2.60;63.02;99789.98;2171499;81;29696;-62
2022/01/31 03:23:22;;;;;;;23.70;4.22;;;;;;;2.62;63.07;99782.03;2138028;81;28276;-62
2022/01/31 03:26:25;;;;;;;24.18;4.78;;;;;;;2.64;63.02;99782.39;2137627;83;28488;-61
2022/01/31 03:29:29;;;;;;;33.23;5.60;;;;;;;2.64;62.99;99774.92;2172806;81;31031;-61
2022/01/31 03:32:30;;;;;;;27.73;5.83;;;;;;;2.65;63.15;99777.98;2170119;81;35106;-62
2022/01/31 03:35:32;;;;;;;26.62;4.83;;;;;;;2.66;63.06;99763.83;2171049;82;30552;-61
2022/01/31 03:38:40;;;;;;;24.82;4.58;;;;;;;2.66;63.11;99759.86;2171754;82;27728;-63
2022/01/31 03:41:38;;;;;;;28.47;6.15;;;;;;;2.63;63.17;99758.17;2163178;81;29907;-61
2022/01/31 03:44:42;;;;;;;29.45;4.55;;;;;;;2.61;63.17;99748.09;2137519;82;32394;-61
2022/01/31 03:47:45;;;;;;;21.97;4.40;;;;;;;2.57;63.16;99745.98;2137486;83;33898;-63
2022/01/31 03:50:46;;;;;;;28.35;4.33;;;;;;;2.52;63.20;99735.12;2137764;83;30474;-61
2022/01/31 03:53:48;;;;;;;28.60;4.55;;;;;;;2.49;63.31;99726.79;2139731;82;27550;-61
2022/01/31 03:56:50;;;;;;;23.35;4.10;;;;;;;2.46;63.32;99726.89;2072763;85;29508;-61
2022/01/31 03:59:51;;;;;;;21.70;4.22;;;;;;;2.45;63.42;99732.20;2072743;85;32343;-63
2022/01/31 04:02:53;;;;;;;24.37;5.22;;;;;;;2.45;63.55;99729.56;2083138;84;33050;-61
2022/01/31 04:05:55;;;;;;;28.52;5.22;;;;;;;2.45;63.62;99725.16;2154347;82;30459;-63
2022/01/31 04:08:57;;;;;;;21.60;4.60;;;;;;;2.46;63.67;99725.57;2147646;81;27685;-63
2022/01/31 04:11:59;;;;;;;21.73;4.42;;;;;;;2.47;63.70;99716.73;2169332;82;29919;-61
2022/01/31 04:15:01;;;;;;;31.07;5.08;;;;;;;2.49;63.71;99714.04;2145570;82;32100;-61
2022/01/31 04:18:03;;;;;;;29.18;4.80;;;;;;;2.50;63.76;99707.38;2140102;83;33497;-64
2022/01/31 04:21:05;;;;;;;32.23;5.55;;;;;;;2.54;63.79;99697.61;2077125;85;30506;-61
2022/01/31 04:24:07;;;;;;;29.70;5.42;;;;;;;2.57;63.77;99702.36;2087781;85;27638;-63
2022/01/31 04:27:16;;;;;;;26.93;5.20;;;;;;;2.60;63.88;99688.64;2087380;84;29875;-61
2022/01/31 04:30:15;;;;;;;32.65;5.10;;;;;;;2.62;63.93;99681.55;2085414;85;32378;-61
2022/01/31 04:33:17;;;;;;;28.70;5.45;;;;;;;2.67;64.02;99686.23;2086956;85;33792;-61
2022/01/31 04:36:19;;;;;;;25.23;5.03;;;;;;;2.70;63.97;99683.50;2086927;84;30540;-61
2022/01/31 04:39:21;;;;;;;30.48;5.95;;;;;;;2.71;64.04;99667.62;2070547;85;27498;-63
2022/01/31 04:42:25;;;;;;;34.25;5.42;;;;;;;2.73;64.11;99655.66;2069821;86;28579;-61
2022/01/31 04:45:27;;;;;;;32.50;5.65;;;;;;;2.77;64.13;99663.05;2131594;83;31884;-62
2022/01/31 04:48:29;;;;;;;30.75;5.03;;;;;;;2.78;64.13;99650.23;2178758;81;34055;-61
2022/01/31 04:51:31;;;;;;;35.88;6.10;;;;;;;2.78;64.18;99644.50;2172851;81;30206;-62
2022/01/31 04:54:33;;;;;;;38.00;6.62;;;;;;;2.80;64.25;99645.77;2171776;81;27756;-63
2022/01/31 04:57:36;;;;;;;37.13;5.95;;;;;;;2.81;64.29;99642.22;2171652;82;29940;-60
2022/01/31 05:00:38;;;;;;;30.52;6.25;;;;;;;2.81;64.34;99632.95;2170169;82;32074;-60
2022/01/31 05:03:41;;;;;;;29.98;5.90;;;;;;;2.80;64.31;99624.17;2170607;82;34149;-60
2022/01/31 05:06:45;;;;;;;25.97;5.05;;;;;;;2.80;64.40;99631.22;2170787;82;30083;-61
2022/01/31 05:09:46;;;;;;;36.68;5.75;;;;;;;2.80;64.46;99627.25;2164412;81;28021;-61
2022/01/31 05:12:48;;;;;;;28.07;5.28;;;;;;;2.79;64.46;99623.76;2143725;83;29331;-64
2022/01/31 05:15:53;;;;;;;38.58;6.60;;;;;;;2.78;64.46;99621.14;2143296;83;32199;-61
2022/01/31 05:18:53;;;;;;;43.75;9.98;;;;;;;2.77;64.49;99614.11;2098981;84;33010;-60
2022/01/31 05:21:55;;;;;;;34.38;8.65;;;;;;;2.78;64.56;99609.23;2143350;82;30450;-62
2022/01/31 05:24:57;;;;;;;34.50;7.08;;;;;;;2.77;64.59;99607.50;2160702;81;27697;-61
2022/01/31 05:27:59;;;;;;;29.48;6.12;;;;;;;2.77;64.56;99603.53;2161903;81;29813;-61
2022/01/31 05:31:00;;;;;;;26.60;5.50;;;;;;;2.77;64.63;99606.17;2163676;82;32221;-59
2022/01/31 05:34:02;;;;;;;29.27;6.50;;;;;;;2.77;64.62;99603.09;2071560;85;34106;-59
2022/01/31 05:37:04;;;;;;;42.30;9.48;;;;;;;2.78;64.63;99596.01;2104599;84;30012;-60
2022/01/31 05:40:08;;;;;;;40.75;11.08;;;;;;;2.78;64.61;99584.11;2104655;84;27589;-59
2022/01/31 05:43:09;;;;;;;49.00;12.07;;;;;;;2.79;64.66;99579.23;2103680;84;28713;-60
2022/01/31 05:46:11;;;;;;;55.15;12.50;;;;;;;2.81;64.66;99573.00;2103890;84;32249;-60
2022/01/31 05:49:13;;;;;;;53.52;11.80;;;;;;;2.82;64.55;99556.19;2105341;84;33887;-59
2022/01/31 05:52:16;;;;;;;45.08;11.20;;;;;;;2.81;64.53;99545.23;2104277;84;29692;-60
2022/01/31 05:55:18;;;;;;;38.90;9.83;;;;;;;2.81;64.60;99545.23;2105854;84;27744;-60
2022/01/31 05:58:19;;;;;;;44.08;8.93;;;;;;;2.81;64.64;99545.23;2106786;84;29085;-60
2022/01/31 06:01:21;;;;;;;29.98;7.90;;;;;;;2.81;64.53;99541.27;2105958;84;32399;-60
2022/01/31 06:04:25;;;;;;;34.83;6.65;;;;;;;2.79;64.53;99539.12;2106348;84;34060;-60
2022/01/31 06:07:27;;;;;;;23.32;5.65;;;;;;;2.80;64.58;99537.32;2105846;84;29432;-61
2022/01/31 06:10:29;;;;;;;24.80;5.75;;;;;;;2.80;64.63;99524.09;2104577;84;27735;-61
2022/01/31 06:13:33;;;;;;;38.98;5.90;;;;;;;2.80;64.60;99514.41;2102041;84;29041;-60
2022/01/31 06:16:35;;;;;;;27.67;5.97;;;;;;;2.80;64.48;99518.37;2036143;85;31859;-60
2022/01/31 06:19:37;;;;;;;32.38;5.70;;;;;;;2.78;64.51;99518.87;2036037;87;34319;-60
2022/01/31 06:22:53;;;;;;;33.15;6.53;;;;;;;2.79;64.48;99514.43;2037033;86;30543;-59
2022/01/31 06:25:55;;;;;;;39.85;6.78;;;;;;;2.77;64.49;99508.31;2069080;84;27704;-60
2022/01/31 06:28:56;;;;;;;37.10;6.28;;;;;;;2.76;64.49;99503.50;2069781;86;28833;-59
2022/01/31 06:31:58;;;;;;;27.07;6.15;;;;;;;2.77;64.45;99506.55;2069825;85;32180;-60
2022/01/31 06:35:01;;;;;;;30.40;6.00;;;;;;;2.78;64.50;99499.47;2064596;85;34109;-59
2022/01/31 06:38:03;;;;;;;41.98;5.65;;;;;;;2.77;64.45;99492.45;2093402;84;29383;-59
2022/01/31 06:41:07;;;;;;;25.80;5.55;;;;;;;2.78;64.37;99479.20;2104357;84;27798;-60
2022/01/31 06:44:09;;;;;;;31.90;7.27;;;;;;;2.79;64.39;99470.79;2082676;84;29914;-60
2022/01/31 06:47:11;;;;;;;35.65;6.22;;;;;;;2.78;64.38;99462.44;2089484;84;32247;-60
2022/01/31 06:50:13;;;;;;;30.43;5.78;;;;;;;2.80;64.29;99468.11;2069614;86;33369;-60
2022/01/31 06:53:17;;;;;;;35.43;6.55;;;;;;;2.83;64.25;99471.95;2070106;86;30032;-59
2022/01/31 06:56:18;;;;;;;30.32;5.33;;;;;;;2.84;64.22;99460.47;2070424;84;27685;-60
2022/01/31 06:59:20;;;;;;;37.05;6.50;;;;;;;2.84;64.09;99452.53;2070590;84;29775;-61
2022/01/31 07:02:22;;;;;;;25.20;6.15;;;;;;;2.84;64.15;99448.56;2069497;86;31646;-60
2022/01/31 07:05:24;;;;;;;35.73;6.25;;;;;;;2.87;64.04;99444.98;2038990;85;34108;-59
2022/01/31 07:08:26;;;;;;;28.07;6.78;;;;;;;2.88;64.11;99432.16;2075626;84;29869;-60
2022/01/31 07:11:32;;;;;;;29.05;7.05;;;;;;;2.88;63.97;99436.98;2104403;83;27774;-61
2022/01/31 07:14:32;;;;;;;37.08;8.83;;;;;;;2.91;63.97;99425.42;2104932;83;30088;-60
2022/01/31 07:17:36;;;;;;;30.52;6.20;;;;;;;2.94;64.01;99417.39;2089396;84;32238;-61
2022/01/31 07:20:41;;;;;;;30.85;6.97;;;;;;;2.97;63.85;99419.94;2103877;83;32431;-60
2022/01/31 07:24:04;;;;;;;45.65;7.97;;;;;;;2.99;63.92;99421.20;2103689;84;29353;-60
2022/01/31 07:26:54;;;;;;;37.70;6.92;;;;;;;3.02;63.93;99425.08;2101404;84;27705;-59
2022/01/31 07:29:56;;;;;;;24.25;5.55;;;;;;;3.06;63.84;99432.01;2103569;84;29895;-61
2022/01/31 07:32:58;;;;;;;31.25;6.20;;;;;;;3.08;63.81;99442.53;2104870;83;31565;-61
2022/01/31 07:36:00;;;;;;;33.40;7.00;;;;;;;3.09;63.84;99433.23;2105184;84;34150;-60
2022/01/31 07:39:03;;;;;;;37.00;6.67;;;;;;;3.13;64.00;99433.98;2105715;84;29275;-61
2022/01/31 07:42:05;;;;;;;28.62;6.05;;;;;;;3.17;63.99;99429.01;2105976;84;27644;-60
2022/01/31 07:45:08;;;;;;;32.80;5.97;;;;;;;3.20;63.95;99417.00;2104418;84;28900;-60
2022/01/31 07:48:10;;;;;;;35.05;5.62;;;;;;;3.25;63.77;99415.52;2103528;84;31202;-60
2022/01/31 07:51:12;;;;;;;36.48;6.08;;;;;;;3.29;63.76;99410.53;2103494;84;34256;-60
2022/01/31 07:54:14;;;;;;;27.17;5.35;;;;;;;3.31;63.81;99401.61;2102195;84;30533;-60
2022/01/31 07:57:18;;;;;;;39.42;6.10;;;;;;;3.37;63.86;99398.36;2099077;84;27705;-60
2022/01/31 08:00:20;;;;;;;36.38;6.62;;;;;;;3.41;63.60;99395.55;2146208;82;28733;-60
2022/01/31 08:03:23;;;;;;;26.40;5.70;;;;;;;3.45;63.62;99381.73;2142014;82;32394;-60
2022/01/31 08:06:25;;;;;;;30.65;6.67;;;;;;;3.49;63.58;99372.30;2145926;82;34216;-60
2022/01/31 08:09:27;;;;;;;32.93;6.37;;;;;;;3.56;63.68;99368.11;2129121;83;30201;-60
2022/01/31 08:12:32;;;;;;;38.73;7.62;;;;;;;3.59;63.30;99363.56;2172895;81;27616;-60
2022/01/31 08:15:44;;;;;;;24.05;4.83;;;;;;;3.62;63.30;99366.11;2142511;81;31017;-61
2022/01/31 08:18:40;;;;;;;28.98;6.47;;;;;;;3.67;63.35;99355.34;2136068;82;31287;-61
2022/01/31 08:21:42;;;;;;;32.30;7.10;;;;;;;3.74;63.24;99354.65;2137351;82;33157;-61
2022/01/31 08:24:45;;;;;;;24.27;5.25;;;;;;;3.80;63.14;99346.48;2138971;82;30507;-61
2022/01/31 08:27:52;;;;;;;20.45;6.25;;;;;;;3.86;63.22;99335.67;2136880;83;27661;-60
2022/01/31 08:30:58;;;;;;;37.83;7.33;;;;;;;3.93;63.05;99326.55;2137420;82;28721;-60
2022/01/31 08:36:58;;;;;;;34.67;7.10;;;;;;;4.05;62.86;99315.95;2170936;82;32864;-61
2022/01/31 08:40:00;;;;;;;37.93;7.62;;;;;;;4.12;62.72;99307.77;2170731;82;30515;-61
2022/01/31 08:43:02;;;;;;;37.75;7.00;;;;;;;4.17;62.67;99304.45;2169027;82;27670;-61
2022/01/31 08:46:05;;;;;;;34.23;6.37;;;;;;;4.22;62.56;99304.67;2170706;82;29604;-61
2022/01/31 08:49:09;;;;;;;46.23;8.00;;;;;;;4.28;62.49;99288.12;2171034;82;31026;-61
2022/01/31 08:52:11;;;;;;;33.48;8.03;;;;;;;4.33;62.52;99291.47;2171038;82;33132;-62
2022/01/31 08:55:13;;;;;;;29.77;6.42;;;;;;;4.37;62.32;99287.30;2170737;82;29289;-61
2022/01/31 08:58:15;;;;;;;40.28;6.90;;;;;;;4.41;62.07;99284.92;2170892;82;27661;-61
2022/01/31 09:01:21;;;;;;;39.53;8.08;;;;;;;4.48;62.27;99276.70;2170909;82;29330;-61
2022/01/31 09:04:47;;;;;;;35.78;6.87;;;;;;;4.53;61.93;99275.61;2168910;82;31067;-62
2022/01/31 09:07:36;;;;;;;28.42;7.03;;;;;;;4.62;62.11;99277.02;2170378;81;34558;-61
2022/01/31 09:10:39;;;;;;;26.10;6.37;;;;;;;4.73;62.10;99267.73;2170301;82;30499;-61
2022/01/31 09:13:42;;;;;;;40.83;7.10;;;;;;;4.84;61.91;99260.17;2164094;82;27628;-63
2022/01/31 09:16:45;;;;;;;29.52;6.60;;;;;;;4.91;61.40;99258.98;2095107;85;29069;-66
2022/01/31 09:19:47;;;;;;;32.78;6.92;;;;;;;5.01;61.36;99253.67;2139742;83;31022;-63
2022/01/31 09:22:50;;;;;;;30.52;7.35;;;;;;;5.09;61.20;99263.95;2139674;82;33033;-63
2022/01/31 09:25:52;;;;;;;26.73;5.62;;;;;;;5.15;60.82;99258.38;2139435;82;30539;-62
2022/01/31 09:28:55;;;;;;;30.45;5.78;;;;;;;5.21;60.66;99257.72;2141643;82;27718;-69
2022/01/31 09:31:59;;;;;;;37.98;7.90;;;;;;;5.24;60.65;99250.92;2139706;82;29471;-61
2022/01/31 09:35:00;;;;;;;41.58;8.45;;;;;;;5.27;60.29;99242.38;2139339;82;32398;-66
2022/01/31 09:38:05;;;;;;;37.25;7.10;;;;;;;5.29;60.15;99243.62;2139368;83;34331;-63
2022/01/31 09:41:09;;;;;;;42.73;7.92;;;;;;;5.32;59.96;99243.48;2098615;84;29359;-67
2022/01/31 09:44:27;;;;;;;35.75;6.75;;;;;;;5.35;60.01;99245.13;2107587;84;27604;-63
2022/01/31 09:48:31;;;;;;;33.30;7.22;;;;;;;5.38;59.76;99235.22;2107884;84;28849;-63
2022/01/31 09:50:28;;;;;;;35.85;7.22;;;;;;;5.45;59.94;99233.18;2107957;84;31091;-63
2022/01/31 09:53:34;;;;;;;38.23;7.05;;;;;;;5.46;59.41;99231.77;2108255;83;32980;-63
2022/01/31 09:56:45;;;;;;;39.00;9.40;;;;;;;5.48;59.73;99229.91;2108231;84;29506;-64
2022/01/31 09:59:47;;;;;;;42.45;8.90;;;;;;;5.50;59.48;99229.82;2118800;83;27766;-63
2022/01/31 10:03:07;;;;;;;34.00;7.12;;;;;;;5.54;59.58;99235.88;2169634;81;29120;-64
2022/01/31 10:06:28;;;;;;;36.05;8.45;;;;;;;5.57;59.43;99228.63;2169466;82;30962;-65
2022/01/31 10:09:32;;;;;;;27.80;6.97;;;;;;;5.61;59.37;99222.69;2172259;81;32978;-63
2022/01/31 10:19:22;;;;;;;38.17;10.23;;;;;;;5.62;59.10;99197.84;2172284;82;29209;-61
2022/01/31 10:22:27;;;;;;;39.80;10.50;;;;;;;5.67;59.18;99193.63;2167648;81;31943;-64
2022/01/31 10:25:29;;;;;;;;;;;;;;;5.71;59.10;99191.23;2173162;82;33931;-62
2022/01/31 10:28:33;;;;;;;38.35;10.55;;;;;;;5.74;58.83;99179.98;2119890;81;29441;-60
2022/01/31 10:31:35;;;;;;;47.80;9.78;;;;;;;5.76;58.94;99175.46;2123220;83;27604;-63
2022/01/31 10:34:55;;;;;;;47.15;10.55;;;;;;;5.81;58.83;99163.75;2087923;84;28065;-62
2022/01/31 10:38:11;;;;;;;42.10;10.23;;;;;;;5.84;58.56;99153.83;2074254;84;31845;-61
2022/01/31 10:54:40;;;;;;;37.25;8.03;;;;;;;5.98;58.35;99121.26;2108166;83;32373;-64
2022/01/31 10:57:41;;;;;;;42.30;10.60;;;;;;;6.02;58.23;99112.23;2108018;83;33365;-62
2022/01/31 11:00:43;;;;;;;34.03;9.60;;;;;;;6.11;57.95;99113.57;2108017;83;30532;-62
2022/01/31 11:03:45;;;;;;;36.13;10.78;;;;;;;6.15;57.87;99108.46;2109199;83;27668;-61
2022/01/31 11:06:52;;;;;;;33.38;9.38;;;;;;;6.18;57.55;99109.64;2173357;81;29876;-65
2022/01/31 11:09:55;;;;;;;33.20;8.53;;;;;;;6.19;57.64;99107.86;2185738;80;31001;-61
2022/01/31 11:13:00;;;;;;;36.50;8.10;;;;;;;6.22;57.94;99101.91;2164781;81;34303;-63
2022/01/31 11:16:12;;;;;;;32.57;6.73;;;;;;;6.27;57.62;99100.83;2173395;81;29318;-63
2022/01/31 11:19:22;;;;;;;39.75;9.40;;;;;;;6.28;57.31;99103.88;2168942;81;27692;-62
2022/01/31 11:22:28;;;;;;;27.87;8.18;;;;;;;6.30;57.43;99087.34;2173836;80;28725;-61
2022/01/31 11:25:36;;;;;;;32.75;9.50;;;;;;;6.31;57.08;99089.06;2172017;80;31046;-63
2022/01/31 11:28:56;;;;;;;33.45;10.18;;;;;;;6.27;56.67;99091.03;2138186;82;29427;-63
2022/01/31 11:32:04;;;;;;;47.85;13.25;;;;;;;6.27;56.99;99084.38;2173416;81;30019;-63
2022/01/31 11:35:07;;;;;;;46.37;13.20;;;;;;;6.31;56.85;99082.41;2179646;81;36695;-66
2022/01/31 11:38:10;;;;;;;35.35;9.85;;;;;;;6.33;57.00;99085.86;2176612;81;28728;-62
2022/01/31 11:41:13;;;;;;;35.48;11.00;;;;;;;6.34;56.90;99077.81;2203555;79;31816;-59
2022/01/31 11:44:29;;;;;;;34.43;9.65;;;;;;;6.34;56.74;99082.26;2178992;81;33843;-59
2022/01/31 11:47:33;;;;;;;31.50;8.60;;;;;;;6.36;56.73;99070.63;2178351;81;30547;-59
2022/01/31 11:50:45;;;;;;;31.85;8.10;;;;;;;6.39;56.72;99069.59;2152265;81;27682;-59
2022/01/31 11:53:48;;;;;;;47.58;8.95;;;;;;;6.43;56.51;99067.62;2169853;81;28860;-60
2022/01/31 11:56:53;;;;;;;42.35;12.88;;;;;;;6.49;56.61;99066.82;2178901;81;31848;-67
2022/01/31 12:00:01;;;;;;;34.10;9.85;;;;;;;6.53;56.45;99060.41;2176720;81;34165;-59
2022/01/31 12:03:06;;;;;;;28.73;9.33;;;;;;;6.54;56.16;99055.93;2177251;81;29352;-69
2022/01/31 12:06:09;;;;;;;26.50;8.98;;;;;;;6.53;56.01;99063.55;2179390;81;27720;-60
2022/01/31 12:09:17;;;;;;;35.90;9.98;;;;;;;6.52;56.30;99061.34;2179420;81;28706;-66
2022/01/31 12:12:45;;;;;;;52.73;14.83;;;;;;;6.50;56.31;99056.57;2160201;81;32286;-61
2022/01/31 12:15:58;;;;;;;41.42;11.08;;;;;;;6.46;56.05;99052.83;2158045;81;34357;-61
2022/01/31 12:19:01;;;;;;;33.33;9.53;;;;;;;6.42;56.08;99050.81;2129559;83;29337;-64
2022/01/31 12:22:01;;;;;;;37.85;10.30;;;;;;;6.37;56.03;99046.20;2151460;82;27855;-63
2022/01/31 12:25:29;;;;;;;40.23;9.88;;;;;;;6.32;56.20;99043.78;2179542;81;28658;-62
2022/01/31 12:28:43;;;;;;;45.75;10.50;;;;;;;6.30;55.91;99036.35;2181313;81;31798;-61
2022/01/31 12:31:51;;;;;;;33.20;8.58;;;;;;;6.26;55.75;99028.62;2168648;81;33940;-62
2022/01/31 12:35:00;;;;;;;32.65;8.58;;;;;;;6.19;55.58;99022.28;2148356;81;30234;-63
2022/01/31 12:38:04;;;;;;;41.30;8.70;;;;;;;6.17;55.38;99028.14;2182031;81;27633;-60
2022/01/31 12:41:29;;;;;;;30.67;8.10;;;;;;;6.14;55.69;99022.98;2173209;80;29506;-61
2022/01/31 12:44:41;;;;;;;31.65;8.23;;;;;;;6.12;55.13;99023.56;2143196;82;31039;-62
2022/01/31 12:48:16;;;;;;;21.52;6.55;;;;;;;6.06;54.97;99023.87;2143485;83;33164;-61
2022/01/31 12:51:20;;;;;;;26.05;7.40;;;;;;;6.05;55.40;99026.13;2144156;82;31319;-62
2022/01/31 12:54:23;;;;;;;24.37;6.65;;;;;;;6.04;55.27;99024.41;2142686;82;27617;-63
2022/01/31 12:57:25;;;;;;;31.37;7.45;;;;;;;6.00;55.10;99022.39;2142588;82;29472;-64
2022/01/31 13:00:39;;;;;;;35.88;8.28;;;;;;;5.98;55.19;99020.70;2142669;83;31031;-62
2022/01/31 13:03:45;;;;;;;44.05;7.80;;;;;;;5.97;55.04;99017.19;2142553;82;33702;-63
2022/01/31 13:06:51;;;;;;;37.08;9.68;;;;;;;5.99;55.21;99020.63;2143804;82;29329;-60
2022/01/31 13:09:53;;;;;;;60.73;17.10;;;;;;;6.02;55.19;99012.54;2141515;81;27680;-62
2022/01/31 13:13:00;;;;;;;54.42;18.85;;;;;;;6.02;55.07;99004.56;2148396;82;29508;-61
2022/01/31 13:16:06;;;;;;;33.18;11.40;;;;;;;6.02;55.04;99005.89;2162700;81;30507;-63
2022/01/31 13:19:18;;;;;;;46.70;11.57;;;;;;;6.01;54.95;99005.95;2177283;81;32966;-63
2022/01/31 13:22:35;;;;;;;34.25;8.13;;;;;;;6.01;54.79;99008.61;2177479;81;30298;-62
2022/01/31 13:25:32;;;;;;;33.67;8.43;;;;;;;5.97;54.47;99005.23;2176446;81;27629;-62
2022/01/31 13:28:35;;;;;;;72.25;31.23;;;;;;;5.96;54.61;99007.50;2175853;81;28776;-61
2022/01/31 13:31:44;;;;;;;57.17;22.35;;;;;;;5.98;54.74;99002.09;2177294;81;31078;-60
2022/01/31 13:34:52;;;;;;;35.98;8.25;;;;;;;6.00;54.85;99002.45;2177169;81;33800;-61
2022/01/31 13:37:58;;;;;;;28.45;8.48;;;;;;;6.00;54.53;99004.23;2162130;81;29336;-61
2022/01/31 13:41:00;;;;;;;37.85;9.18;;;;;;;5.96;54.32;99002.66;2150202;82;27645;-61
2022/01/31 13:44:03;;;;;;;43.83;9.80;;;;;;;5.94;54.19;99004.05;2149438;82;29676;-61
2022/01/31 13:47:06;;;;;;;34.00;7.70;;;;;;;5.89;53.66;99002.97;2150793;81;32224;-61
2022/01/31 13:50:25;;;;;;;32.58;7.10;;;;;;;5.83;54.01;99010.40;2148598;82;33869;-61
2022/01/31 13:53:39;;;;;;;29.75;7.35;;;;;;;5.74;53.18;99009.06;2149177;82;29316;-61
2022/01/31 13:56:55;;;;;;;36.48;9.78;;;;;;;5.62;53.88;99018.51;2174526;81;27617;-61
2022/01/31 13:59:57;;;;;;;32.28;9.68;;;;;;;5.59;53.92;99012.02;2176900;81;28738;-61
2022/01/31 14:03:12;;;;;;;38.60;9.75;;;;;;;5.56;53.96;99013.04;2179705;81;32041;-62
2022/01/31 14:06:15;;;;;;;35.55;8.85;;;;;;;5.51;53.97;99009.74;2158355;81;32970;-62
2022/01/31 14:09:17;;;;;;;47.48;10.53;;;;;;;5.49;54.04;99011.61;2179041;81;30461;-62
2022/01/31 14:12:20;;;;;;;34.83;7.78;;;;;;;5.45;54.12;99010.91;2178348;81;27570;-62
2022/01/31 14:15:23;;;;;;;26.68;7.75;;;;;;;5.43;54.50;99006.14;2172971;81;28750;-62
2022/01/31 14:18:29;;;;;;;34.03;8.35;;;;;;;5.43;54.70;99003.97;2149516;82;31089;-62
2022/01/31 14:21:32;;;;;;;35.90;9.30;;;;;;;5.38;54.45;99000.19;2149731;82;34398;-62
2022/01/31 14:24:34;;;;;;;34.43;9.53;;;;;;;5.32;54.23;98994.71;2149782;82;29613;-61
2022/01/31 14:27:36;;;;;;;37.05;8.35;;;;;;;5.25;54.43;98995.97;2151312;81;28195;-62
2022/01/31 14:30:53;;;;;;;40.78;8.98;;;;;;;5.20;54.41;98997.13;2149856;81;29548;-62
2022/01/31 14:33:55;;;;;;;38.58;10.88;;;;;;;5.14;54.53;98999.59;2178990;81;30524;-62
2022/01/31 14:37:04;;;;;;;35.80;9.40;;;;;;;5.10;54.65;99000.70;2179070;81;34140;-62
2022/01/31 14:40:24;;;;;;;39.58;9.85;;;;;;;5.01;54.57;98998.86;2178907;81;29309;-62
2022/01/31 14:43:19;;;;;;;42.60;11.22;;;;;;;4.94;54.52;98997.90;2161314;81;27672;-63
2022/01/31 14:49:37;;;;;;;38.15;13.62;;;;;;;4.78;54.75;99014.55;2140795;83;31553;-62
2022/01/31 14:52:40;;;;;;;35.28;11.48;;;;;;;4.69;54.98;99014.51;2167844;81;34335;-62